CheckWX is a tool to help pilots better visualize weather data.  It is not intended as a substitute for an official pre-flight weather briefing.

01:52:08 UTC

SAWH TAF
Malvinas Argentinas Airport
Ushuahia, Argentina
TAF SAWH 182300Z 1900/1924 21012KT 9999 BKN018 BKN030 TX13/1919Z TN02/1910Z BECMG 1904/1906 VRB07KT BKN025 BECMG 1914/1916 27012KT

Mar-19@
00:00 UTC

Mar-19 @ 00:00 UTC

Mar-19@
04:00 UTC

Mar-19 @ 04:00 UTC

TAF SAWH 182300Z 1900/1924 21012KT 9999 BKN018 BKN030 TX13/1919Z TN02/1910Z
Wind
  • 210° at 12 KTS
Cloud Levels
  • Broken at 1,800' AGL
  • Broken at 3,000' AGL

Mar-19@
04:00 UTC

Mar-19 @ 04:00 UTC

Mar-19@
14:00 UTC

Mar-19 @ 14:00 UTC

BECMG 1904/1906 VRB07KT BKN025

Becoming

Becoming Conditions expected by Tue, Mar 19, 2019 @ 06:00 UTC

Wind
  • Variable at 7 KTS
Cloud Levels
  • Broken at 2,500' AGL

Mar-19@
14:00 UTC

Mar-19 @ 14:00 UTC

Mar-20@
00:00 UTC

Mar-20 @ 00:00 UTC

BECMG 1914/1916 27012KT

Becoming

Becoming Conditions expected by Tue, Mar 19, 2019 @ 16:00 UTC

Wind
  • 270° at 12 KTS
Cloud Levels
  • Broken at 2,500' AGL